createdAt,value
2018-10-05T00:02:24.373Z,97.00
2018-10-05T00:04:53.547Z,97.10
2018-10-05T00:07:22.670Z,97.10
2018-10-05T00:09:52.099Z,97.00
2018-10-05T00:12:21.273Z,97.00
2018-10-05T00:14:50.504Z,97.00
2018-10-05T00:17:19.754Z,96.70
2018-10-05T00:19:49.298Z,96.70
2018-10-05T00:22:18.520Z,97.00
2018-10-05T00:24:47.814Z,96.70
2018-10-05T00:27:16.909Z,96.80
2018-10-05T00:29:46.066Z,97.00
2018-10-05T00:32:15.256Z,97.10
2018-10-05T00:34:44.399Z,97.10
2018-10-05T00:37:13.574Z,97.70
2018-10-05T00:39:42.764Z,97.60
2018-10-05T00:42:12.229Z,97.90
2018-10-05T00:44:41.357Z,97.50
2018-10-05T00:47:10.563Z,97.30
2018-10-05T00:49:39.690Z,97.10
2018-10-05T00:52:08.822Z,97.10
2018-10-05T00:54:37.998Z,97.10
2018-10-05T00:57:07.130Z,97.00
2018-10-05T00:59:36.348Z,97.00
2018-10-05T01:02:05.523Z,96.90
2018-10-05T01:04:34.685Z,97.20
2018-10-05T01:07:03.811Z,97.20
2018-10-05T01:09:32.932Z,97.20
2018-10-05T01:12:02.060Z,97.10
2018-10-05T01:14:31.473Z,97.10
2018-10-05T01:17:00.602Z,96.90
2018-10-05T01:19:29.727Z,97.10
2018-10-05T01:21:58.851Z,97.00
2018-10-05T01:24:27.965Z,97.20
2018-10-05T01:26:57.093Z,97.20
2018-10-05T01:29:26.233Z,97.30
2018-10-05T01:31:55.400Z,97.40
2018-10-05T01:34:24.505Z,97.40
2018-10-05T01:36:53.641Z,97.50
2018-10-05T01:39:22.804Z,97.50
2018-10-05T01:41:51.975Z,97.50
2018-10-05T01:44:21.153Z,97.80
2018-10-05T01:46:50.373Z,98.20
2018-10-05T01:49:19.505Z,97.80
2018-10-05T01:51:48.653Z,97.70
2018-10-05T01:54:17.843Z,97.70
2018-10-05T01:56:46.975Z,97.80
2018-10-05T01:59:16.149Z,98.00
2018-10-05T02:01:45.253Z,97.90
2018-10-05T02:04:14.386Z,98.20
2018-10-05T02:06:43.526Z,98.10
2018-10-05T02:09:12.648Z,98.00
2018-10-05T02:11:41.807Z,97.90
2018-10-05T02:14:10.946Z,97.90
2018-10-05T02:16:40.082Z,97.80
2018-10-05T02:19:09.225Z,97.70
2018-10-05T02:21:38.362Z,97.80
2018-10-05T02:24:07.589Z,97.80
2018-10-05T02:26:36.705Z,97.90
2018-10-05T02:29:06.053Z,97.90
2018-10-05T02:31:35.171Z,97.90
2018-10-05T02:34:04.818Z,98.10
2018-10-05T02:36:33.985Z,98.30
2018-10-05T02:39:03.511Z,98.60
2018-10-05T02:41:32.676Z,98.70
2018-10-05T02:44:01.769Z,98.70
2018-10-05T02:46:30.935Z,98.90
2018-10-05T02:49:00.070Z,98.90
2018-10-05T02:51:29.280Z,98.60
2018-10-05T02:53:58.425Z,98.40
2018-10-05T02:56:27.650Z,98.30
2018-10-05T02:58:56.763Z,98.10
2018-10-05T03:01:37.114Z,98.00
2018-10-05T03:04:06.261Z,97.90
2018-10-05T03:06:35.772Z,98.30
2018-10-05T03:09:05.609Z,98.20
2018-10-05T03:11:34.716Z,98.40
2018-10-05T03:14:04.285Z,98.40
2018-10-05T03:16:33.470Z,98.40
2018-10-05T03:19:02.671Z,98.10
2018-10-05T03:21:31.801Z,97.90
2018-10-05T03:24:00.965Z,98.00
2018-10-05T03:26:30.110Z,98.20
2018-10-05T03:28:59.237Z,98.40
2018-10-05T03:31:28.401Z,98.40
2018-10-05T03:33:57.505Z,98.70
2018-10-05T03:36:26.610Z,98.40
2018-10-05T03:38:55.745Z,97.90
2018-10-05T03:41:24.906Z,97.50
2018-10-05T03:43:53.997Z,97.50
2018-10-05T03:46:23.126Z,97.60
2018-10-05T03:48:52.250Z,97.90
2018-10-05T03:51:21.373Z,98.10
2018-10-05T03:53:50.490Z,97.90
2018-10-05T03:56:19.610Z,97.80
2018-10-05T03:58:48.858Z,98.20
2018-10-05T04:01:17.947Z,98.40
2018-10-05T04:03:47.446Z,98.10
2018-10-05T04:06:16.595Z,98.00
2018-10-05T04:08:45.694Z,98.10
2018-10-05T04:11:14.823Z,98.30
2018-10-05T04:13:44.059Z,98.20
2018-10-05T04:16:13.214Z,98.30
2018-10-05T04:18:42.305Z,98.20
2018-10-05T04:21:11.673Z,98.30
2018-10-05T04:23:40.823Z,98.30
2018-10-05T04:26:10.039Z,98.50
2018-10-05T04:28:39.136Z,98.50
2018-10-05T04:31:08.267Z,98.60
2018-10-05T04:33:37.363Z,99.10
2018-10-05T04:36:06.481Z,99.20
2018-10-05T04:38:35.626Z,99.30
2018-10-05T04:41:04.800Z,99.30
2018-10-05T04:43:33.906Z,99.50
2018-10-05T04:46:03.031Z,99.40
2018-10-05T04:48:32.198Z,99.30
2018-10-05T04:51:01.326Z,99.10
2018-10-05T04:53:30.481Z,99.30
2018-10-05T04:55:59.646Z,99.70
2018-10-05T04:58:28.751Z,99.80
2018-10-05T05:00:57.877Z,99.50
2018-10-05T05:03:27.164Z,99.20
2018-10-05T05:05:56.251Z,98.90
2018-10-05T05:08:25.366Z,98.50
2018-10-05T05:10:54.506Z,98.40
2018-10-05T05:13:23.625Z,98.60
2018-10-05T05:15:52.810Z,98.50
2018-10-05T05:18:21.970Z,98.90
2018-10-05T05:20:51.110Z,98.80
2018-10-05T05:23:20.258Z,99.00
2018-10-05T05:25:49.403Z,99.30
2018-10-05T05:28:18.519Z,98.80
2018-10-05T05:30:47.681Z,98.80
2018-10-05T05:33:16.811Z,98.70
2018-10-05T05:35:46.210Z,98.00
2018-10-05T05:38:15.335Z,98.60
2018-10-05T05:40:44.474Z,98.20
2018-10-05T05:43:13.623Z,98.40
2018-10-05T05:45:42.767Z,98.60
2018-10-05T05:48:11.921Z,98.80
2018-10-05T05:50:41.181Z,98.60
2018-10-05T05:53:10.330Z,98.90
2018-10-05T05:55:39.466Z,98.80
2018-10-05T05:58:08.570Z,99.00
2018-10-05T06:00:37.725Z,98.50
2018-10-05T06:03:06.895Z,98.20
2018-10-05T06:05:36.004Z,97.90
2018-10-05T06:08:05.246Z,97.50
2018-10-05T06:10:34.601Z,97.80
2018-10-05T06:13:03.774Z,98.30
2018-10-05T06:15:32.907Z,98.40
2018-10-05T06:18:02.066Z,98.00
2018-10-05T06:20:31.219Z,97.60
2018-10-05T06:23:00.413Z,97.50
2018-10-05T06:25:29.728Z,97.50
2018-10-05T06:27:58.860Z,97.00
2018-10-05T06:30:28.071Z,97.30
2018-10-05T06:32:57.510Z,97.30
2018-10-05T06:35:26.599Z,97.30
2018-10-05T06:37:55.756Z,97.00
2018-10-05T06:40:24.890Z,96.80
2018-10-05T06:42:54.045Z,96.80
2018-10-05T06:45:23.204Z,96.60
2018-10-05T06:47:52.331Z,96.50
2018-10-05T06:50:22.559Z,96.30
2018-10-05T06:52:53.120Z,96.10
2018-10-05T06:55:22.686Z,96.20
2018-10-05T06:57:51.891Z,96.20
2018-10-05T07:00:23.114Z,96.00
2018-10-05T07:02:52.475Z,95.90
2018-10-05T07:05:21.719Z,95.80
2018-10-05T07:07:51.026Z,95.80
2018-10-05T07:10:20.208Z,95.90
2018-10-05T07:12:49.420Z,95.80
2018-10-05T07:15:18.607Z,95.80
2018-10-05T07:17:47.709Z,95.80
2018-10-05T07:20:16.954Z,95.80
2018-10-05T07:22:46.140Z,95.90
2018-10-05T07:25:15.396Z,96.10
2018-10-05T07:27:44.591Z,96.10
2018-10-05T07:30:13.794Z,96.30
2018-10-05T07:32:42.902Z,96.40
2018-10-05T07:35:12.038Z,96.50
2018-10-05T07:37:41.206Z,96.80
2018-10-05T07:40:10.368Z,96.40
2018-10-05T07:42:39.640Z,96.40
2018-10-05T07:45:08.910Z,96.20
2018-10-05T07:47:38.044Z,96.20
2018-10-05T07:50:07.309Z,96.40
2018-10-05T07:52:36.437Z,96.50
2018-10-05T07:55:05.865Z,96.10
2018-10-05T07:57:35.139Z,96.00
2018-10-05T08:00:04.683Z,95.90
2018-10-05T08:02:33.938Z,95.80
2018-10-05T08:05:03.180Z,96.20
2018-10-05T08:07:32.380Z,95.70
2018-10-05T08:10:01.613Z,95.60
2018-10-05T08:12:31.761Z,95.30
2018-10-05T08:15:00.975Z,95.30
2018-10-05T08:17:30.161Z,95.30
2018-10-05T08:19:59.405Z,95.20
2018-10-05T08:22:28.542Z,95.40
2018-10-05T08:24:58.004Z,95.40
2018-10-05T08:27:27.153Z,95.50
2018-10-05T08:29:56.288Z,95.50
2018-10-05T08:32:25.461Z,95.20
2018-10-05T08:34:54.582Z,95.20
2018-10-05T08:37:23.750Z,95.20
2018-10-05T08:39:53.001Z,95.40
2018-10-05T08:42:22.346Z,95.30
2018-10-05T08:44:51.465Z,95.20
2018-10-05T08:47:20.653Z,95.00
2018-10-05T08:49:50.004Z,94.90
2018-10-05T08:52:19.248Z,94.90
2018-10-05T08:54:48.712Z,94.70
2018-10-05T08:57:17.962Z,94.60
2018-10-05T08:59:47.117Z,94.80
2018-10-05T09:02:16.239Z,94.50
2018-10-05T09:04:45.413Z,94.20
2018-10-05T09:07:14.555Z,94.10
2018-10-05T09:09:43.736Z,93.90
2018-10-05T09:12:12.897Z,94.10
2018-10-05T09:14:42.212Z,93.90
2018-10-05T09:17:11.399Z,93.80
2018-10-05T09:19:40.590Z,93.70
2018-10-05T09:22:09.762Z,93.60
2018-10-05T09:24:38.978Z,94.10
2018-10-05T09:27:08.282Z,93.50
2018-10-05T09:29:37.447Z,93.10
2018-10-05T09:32:06.685Z,92.90
2018-10-05T09:34:35.875Z,93.00
2018-10-05T09:37:05.041Z,92.90
2018-10-05T09:39:34.186Z,92.90
2018-10-05T09:42:03.388Z,92.80
2018-10-05T09:44:32.573Z,93.00
2018-10-05T09:47:01.802Z,93.00
2018-10-05T09:49:30.956Z,93.00
2018-10-05T09:52:00.204Z,93.00
2018-10-05T09:54:34.086Z,92.90
2018-10-05T09:57:04.870Z,92.80
2018-10-05T09:59:34.079Z,92.60
2018-10-05T10:02:08.808Z,92.70
2018-10-05T10:04:38.011Z,92.70
2018-10-05T10:07:07.159Z,92.60
2018-10-05T10:09:36.407Z,92.50
2018-10-05T10:12:05.908Z,92.60
2018-10-05T10:14:35.122Z,92.60
2018-10-05T10:17:04.359Z,92.60
2018-10-05T10:19:33.670Z,92.50
2018-10-05T10:22:02.925Z,92.30
2018-10-05T10:24:32.527Z,92.20
2018-10-05T10:27:01.711Z,92.10
2018-10-05T10:29:32.624Z,92.20
2018-10-05T10:32:01.845Z,92.20
2018-10-05T10:34:34.026Z,92.10
2018-10-05T10:37:03.187Z,92.20
2018-10-05T10:39:32.335Z,92.00
2018-10-05T10:42:01.512Z,92.00
2018-10-05T10:44:30.657Z,92.00
2018-10-05T10:46:59.826Z,92.00
2018-10-05T10:49:28.971Z,91.90
2018-10-05T10:51:58.170Z,92.10
2018-10-05T10:54:27.293Z,91.70
2018-10-05T10:56:56.576Z,91.20
2018-10-05T10:59:25.771Z,91.40
2018-10-05T11:01:54.938Z,91.30
2018-10-05T11:04:25.045Z,91.10
2018-10-05T11:06:54.413Z,90.80
2018-10-05T11:09:23.777Z,90.90
2018-10-05T11:11:53.118Z,90.70
2018-10-05T11:14:22.590Z,90.80
2018-10-05T11:16:51.960Z,90.70
2018-10-05T11:19:21.249Z,90.50
2018-10-05T11:21:51.033Z,90.50
2018-10-05T11:24:20.197Z,90.70
2018-10-05T11:26:49.382Z,90.50
2018-10-05T11:29:18.616Z,90.50
2018-10-05T11:31:47.784Z,90.50
2018-10-05T11:34:16.905Z,90.30
2018-10-05T11:36:46.090Z,90.30
2018-10-05T11:39:15.202Z,90.60
2018-10-05T11:41:44.368Z,90.10
2018-10-05T11:44:13.512Z,90.10
2018-10-05T11:46:42.682Z,89.90
2018-10-05T11:49:11.840Z,89.40
2018-10-05T11:51:40.996Z,88.90
2018-10-05T11:54:10.132Z,89.30
2018-10-05T11:56:39.251Z,89.40
2018-10-05T11:59:08.454Z,89.30
2018-10-05T12:01:37.577Z,89.00
2018-10-05T12:04:06.756Z,88.50
2018-10-05T12:06:35.944Z,88.50
2018-10-05T12:09:07.190Z,88.80
2018-10-05T12:11:36.668Z,88.40
2018-10-05T12:14:05.830Z,88.40
2018-10-05T12:16:35.125Z,88.50
2018-10-05T12:19:04.275Z,87.90
2018-10-05T12:21:33.472Z,87.90
2018-10-05T12:24:02.656Z,87.60
2018-10-05T12:26:31.846Z,87.40
2018-10-05T12:29:01.110Z,86.70
2018-10-05T12:31:30.307Z,86.80
2018-10-05T12:33:59.483Z,86.60
2018-10-05T12:36:28.643Z,86.60
2018-10-05T12:38:57.794Z,86.60
2018-10-05T12:41:26.947Z,86.40
2018-10-05T12:43:56.122Z,86.00
2018-10-05T12:46:25.313Z,86.20
2018-10-05T12:48:54.708Z,86.20
2018-10-05T12:51:23.952Z,86.20
2018-10-05T12:53:53.113Z,86.70
2018-10-05T12:56:22.376Z,86.30
2018-10-05T12:58:51.534Z,85.90
2018-10-05T13:01:21.066Z,86.00
2018-10-05T13:03:50.237Z,86.30
2018-10-05T13:06:19.430Z,86.30
2018-10-05T13:08:48.568Z,86.30
2018-10-05T13:11:18.130Z,85.60
2018-10-05T13:13:47.322Z,84.80
2018-10-05T13:16:16.560Z,84.80
2018-10-05T13:18:45.733Z,84.90
2018-10-05T13:21:14.910Z,85.00
2018-10-05T13:23:44.083Z,85.50
2018-10-05T13:26:13.272Z,84.90
2018-10-05T13:28:42.508Z,85.10
2018-10-05T13:31:18.044Z,85.10
2018-10-05T13:33:47.182Z,84.90
2018-10-05T13:36:16.462Z,85.40
2018-10-05T13:38:45.690Z,85.00
2018-10-05T13:41:14.816Z,84.80
2018-10-05T13:43:43.990Z,84.20
2018-10-05T13:46:13.181Z,84.00
2018-10-05T13:48:42.428Z,83.90
2018-10-05T13:51:11.602Z,83.70
2018-10-05T13:53:40.770Z,84.10
2018-10-05T13:56:09.935Z,84.00
2018-10-05T13:58:39.152Z,83.70
2018-10-05T14:01:08.389Z,84.60
2018-10-05T14:03:37.526Z,84.20
2018-10-05T14:06:06.782Z,83.70
2018-10-05T14:08:35.965Z,83.60
2018-10-05T14:11:05.274Z,83.20
2018-10-05T14:13:34.453Z,83.60
2018-10-05T14:16:03.651Z,83.50
2018-10-05T14:18:32.873Z,84.10
2018-10-05T14:21:02.035Z,84.80
2018-10-05T14:23:31.194Z,85.10
2018-10-05T14:26:00.314Z,83.80
2018-10-05T14:28:29.514Z,83.50
2018-10-05T14:30:58.675Z,83.20
2018-10-05T14:33:27.850Z,83.60
2018-10-05T14:35:57.004Z,83.50
2018-10-05T14:38:26.135Z,83.80
2018-10-05T14:40:55.271Z,83.10
2018-10-05T14:43:24.459Z,82.90
2018-10-05T14:45:53.642Z,82.60
2018-10-05T14:48:22.778Z,82.90
2018-10-05T14:50:51.959Z,82.60
2018-10-05T14:53:21.122Z,82.30
2018-10-05T14:55:50.295Z,82.60
2018-10-05T14:58:19.418Z,82.90
2018-10-05T15:00:48.650Z,82.60
2018-10-05T15:03:17.898Z,82.90
2018-10-05T15:05:47.082Z,82.00
2018-10-05T15:08:16.254Z,82.00
2018-10-05T15:10:45.440Z,81.60
2018-10-05T15:13:14.670Z,81.20
2018-10-05T15:15:43.792Z,80.80
2018-10-05T15:18:12.975Z,80.80
2018-10-05T15:20:42.169Z,81.00
2018-10-05T15:23:11.310Z,81.50
2018-10-05T15:25:40.455Z,81.80
2018-10-05T15:28:09.699Z,82.00
2018-10-05T15:30:38.836Z,82.50
2018-10-05T15:33:08.055Z,82.00
2018-10-05T15:35:37.266Z,82.00
2018-10-05T15:38:06.494Z,82.90
2018-10-05T15:40:35.626Z,82.20
2018-10-05T15:43:05.707Z,82.40
2018-10-05T15:45:34.946Z,82.30
2018-10-05T15:48:04.515Z,82.40
2018-10-05T15:50:33.695Z,83.10
2018-10-05T15:53:02.937Z,83.00
2018-10-05T15:55:32.029Z,83.50
2018-10-05T15:58:01.206Z,83.60
2018-10-05T16:00:30.349Z,83.50
2018-10-05T16:02:59.503Z,85.80
2018-10-05T16:05:29.106Z,85.90
2018-10-05T16:07:58.236Z,84.90
2018-10-05T16:10:27.446Z,84.80
2018-10-05T16:12:56.718Z,86.50
2018-10-05T16:15:26.189Z,86.70
2018-10-05T16:17:55.317Z,87.10
2018-10-05T16:20:24.882Z,88.00
2018-10-05T16:22:54.050Z,87.50
2018-10-05T16:25:23.209Z,87.70
2018-10-05T16:27:52.414Z,87.90
2018-10-05T16:30:21.664Z,88.10
2018-10-05T16:32:51.216Z,88.40
2018-10-05T16:35:20.375Z,88.90
2018-10-05T16:37:50.001Z,89.10
2018-10-05T16:40:19.232Z,89.30
2018-10-05T16:42:48.384Z,89.70
2018-10-05T16:45:17.670Z,89.80
2018-10-05T16:47:46.836Z,89.40
2018-10-05T16:50:16.031Z,89.40
2018-10-05T16:52:45.181Z,89.50
2018-10-05T16:55:14.309Z,89.50
2018-10-05T16:57:43.518Z,89.70
2018-10-05T17:00:12.703Z,89.90
2018-10-05T17:02:41.961Z,90.00
2018-10-05T17:05:11.141Z,90.10
2018-10-05T17:07:40.345Z,90.40
2018-10-05T17:10:09.641Z,90.60
2018-10-05T17:12:38.829Z,90.60
2018-10-05T17:15:08.147Z,90.90
2018-10-05T17:17:37.692Z,91.00
2018-10-05T17:20:06.908Z,91.20
2018-10-05T17:22:37.048Z,91.30
2018-10-05T17:25:06.333Z,91.50
2018-10-05T17:27:35.475Z,91.50
2018-10-05T17:30:05.149Z,91.60
2018-10-05T17:32:34.294Z,91.90
2018-10-05T17:35:04.794Z,92.20
2018-10-05T17:37:34.170Z,92.10
2018-10-05T17:40:03.331Z,92.60
2018-10-05T17:42:32.566Z,92.50
2018-10-05T17:45:01.744Z,92.70
2018-10-05T17:47:31.198Z,92.90
2018-10-05T17:50:00.361Z,93.10
2018-10-05T17:52:29.542Z,92.90
2018-10-05T17:54:58.686Z,93.00
2018-10-05T17:57:27.901Z,93.20
2018-10-05T17:59:57.230Z,93.20
2018-10-05T18:02:26.381Z,93.30
2018-10-05T18:04:55.590Z,93.30
2018-10-05T18:07:24.786Z,93.40
2018-10-05T18:09:53.987Z,93.50
2018-10-05T18:12:23.188Z,93.50
2018-10-05T18:14:52.415Z,93.60
2018-10-05T18:17:21.832Z,93.70
2018-10-05T18:19:51.002Z,93.80
2018-10-05T18:22:20.171Z,93.90
2018-10-05T18:24:49.371Z,93.90
2018-10-05T18:27:18.525Z,93.90
2018-10-05T18:29:47.726Z,94.10
2018-10-05T18:32:16.996Z,94.10
2018-10-05T18:34:46.153Z,94.20
2018-10-05T18:37:15.347Z,94.40
2018-10-05T18:39:44.554Z,94.50
2018-10-05T18:42:13.792Z,94.70
2018-10-05T18:44:43.077Z,94.70
2018-10-05T18:47:12.258Z,94.70
2018-10-05T18:49:41.509Z,94.80
2018-10-05T18:52:10.701Z,94.80
2018-10-05T18:54:39.910Z,94.90
2018-10-05T18:57:16.776Z,94.80
2018-10-05T18:59:46.440Z,94.80
2018-10-05T19:02:17.740Z,94.90
2018-10-05T19:04:49.331Z,95.00
2018-10-05T19:07:18.582Z,95.10
2018-10-05T19:09:47.873Z,95.20
2018-10-05T19:12:17.098Z,95.20
2018-10-05T19:14:46.360Z,95.50
2018-10-05T19:17:15.546Z,95.40
2018-10-05T19:19:44.746Z,95.50
2018-10-05T19:22:13.976Z,95.60
2018-10-05T19:24:43.139Z,95.50
2018-10-05T19:27:12.294Z,95.70
2018-10-05T19:29:41.488Z,95.70
2018-10-05T19:32:10.698Z,95.80
2018-10-05T19:34:39.868Z,95.80
2018-10-05T19:37:09.048Z,96.00
2018-10-05T19:39:38.180Z,96.20
2018-10-05T19:42:07.468Z,96.30
2018-10-05T19:44:36.549Z,96.30
2018-10-05T19:47:05.794Z,96.40
2018-10-05T19:49:34.937Z,96.60
2018-10-05T19:52:04.104Z,96.60
2018-10-05T19:54:33.298Z,96.70
2018-10-05T19:57:02.448Z,96.70
2018-10-05T19:59:31.668Z,96.80
2018-10-05T20:02:00.897Z,96.80
2018-10-05T20:04:30.092Z,96.90
2018-10-05T20:06:59.251Z,97.00
2018-10-05T20:09:28.547Z,97.40
2018-10-05T20:11:57.884Z,97.20
2018-10-05T20:14:27.340Z,97.20
2018-10-05T20:16:56.633Z,97.30
2018-10-05T20:19:25.810Z,97.50
2018-10-05T20:21:55.131Z,97.60
2018-10-05T20:24:24.419Z,97.70
2018-10-05T20:26:53.604Z,97.70
2018-10-05T20:29:22.845Z,97.70
2018-10-05T20:31:52.038Z,97.60
2018-10-05T20:34:21.235Z,97.70
2018-10-05T20:36:50.572Z,97.50
2018-10-05T20:39:19.973Z,97.50
2018-10-05T20:41:49.200Z,97.60
2018-10-05T20:44:18.461Z,97.70
2018-10-05T20:46:47.600Z,97.80
2018-10-05T20:49:19.725Z,97.80
2018-10-05T20:51:48.910Z,97.90
2018-10-05T20:54:18.497Z,98.10
2018-10-05T20:56:47.621Z,98.30
2018-10-05T20:59:16.917Z,98.10
2018-10-05T21:01:46.085Z,98.10
2018-10-05T21:04:15.381Z,98.30
2018-10-05T21:06:44.551Z,98.50
2018-10-05T21:09:14.336Z,98.60
2018-10-05T21:11:43.591Z,98.70
2018-10-05T21:14:12.759Z,98.70
2018-10-05T21:16:41.897Z,98.70
2018-10-05T21:19:11.064Z,98.80
2018-10-05T21:21:40.276Z,98.80
2018-10-05T21:24:09.597Z,99.00
2018-10-05T21:26:38.857Z,99.00
2018-10-05T21:29:08.377Z,98.90
2018-10-05T21:31:37.555Z,98.60
2018-10-05T21:34:06.891Z,98.90
2018-10-05T21:36:35.985Z,98.80
2018-10-05T21:39:07.781Z,98.70
2018-10-05T21:41:37.089Z,98.80
2018-10-05T21:44:06.342Z,99.00
2018-10-05T21:46:35.497Z,99.00
2018-10-05T21:49:04.676Z,98.70
2018-10-05T21:51:33.947Z,98.70
2018-10-05T21:54:03.282Z,98.70
2018-10-05T21:56:32.409Z,98.40
2018-10-05T21:59:01.735Z,98.70
2018-10-05T22:01:30.980Z,99.10
2018-10-05T22:04:00.297Z,99.10
2018-10-05T22:06:29.478Z,99.10
2018-10-05T22:08:58.653Z,99.10
2018-10-05T22:11:28.735Z,99.30
2018-10-05T22:13:57.894Z,99.40
2018-10-05T22:16:27.082Z,99.30
2018-10-05T22:18:56.221Z,99.50
2018-10-05T22:21:25.370Z,99.30
2018-10-05T22:23:54.529Z,99.30
2018-10-05T22:26:23.707Z,99.40
2018-10-05T22:28:52.907Z,99.10
2018-10-05T22:31:22.105Z,99.10
2018-10-05T22:33:51.364Z,99.40
2018-10-05T22:36:20.504Z,99.40
2018-10-05T22:38:49.657Z,99.40
2018-10-05T22:41:18.775Z,99.40
2018-10-05T22:43:48.535Z,99.50
2018-10-05T22:46:18.013Z,99.20
2018-10-05T22:48:47.231Z,99.10
2018-10-05T22:51:16.488Z,99.10
2018-10-05T22:53:45.618Z,99.10
2018-10-05T22:56:14.798Z,99.20
2018-10-05T22:58:43.925Z,99.10
2018-10-05T23:01:13.136Z,99.50
2018-10-05T23:03:42.289Z,99.90
2018-10-05T23:06:11.437Z,99.90
2018-10-05T23:08:40.554Z,99.90
2018-10-05T23:11:09.726Z,99.90
2018-10-05T23:13:38.858Z,99.90
2018-10-05T23:16:08.121Z,99.90
2018-10-05T23:18:37.230Z,99.90
2018-10-05T23:21:06.487Z,99.80
2018-10-05T23:23:35.629Z,99.60
2018-10-05T23:26:04.814Z,99.60
2018-10-05T23:28:34.102Z,99.60
2018-10-05T23:31:06.431Z,99.90
2018-10-05T23:33:35.572Z,99.90
2018-10-05T23:36:04.771Z,99.90
2018-10-05T23:38:35.204Z,99.80
2018-10-05T23:41:04.322Z,99.80
2018-10-05T23:43:33.486Z,99.90
2018-10-05T23:46:02.857Z,99.90
2018-10-05T23:48:32.043Z,99.90
2018-10-05T23:51:01.211Z,99.90
2018-10-05T23:53:30.377Z,99.90
2018-10-05T23:55:59.512Z,99.90
2018-10-05T23:58:29.085Z,99.90
